Route Details

Aircraft Information
Group: Large Widebodies
Types: B744, MD11
Route Data
Distance: 3848nm
Duration: 8h 34m
Origin METAR: SAEZ 170600Z 02006KT 9999 SCT043 BKN100 14/03 Q1006 NOSIG RMK PP000
Dest. METAR: KMIA 171053Z 21004KT 10SM FEW025 26/23 A2995 RMK AO2 SLP143 T02610233 $
Freight Data
(for Aug 18, 2022)
Load Factor:
23%
Manifested Cargo: 49,412lbs
Financial History
Total Freight: 440,994lbs
Average Load: 0lbs/flt
Fuel Used: 884,376lbs
Avg. Fuel Used: 0lbs/flt
Fuel Expense: $627,803
Avg. Fuel Expense: $0
Avg. Fuel Cost: $0/lbs
Total Gross Income: $1,322,741
Pilot Pay: $776
Total Expenses: $244,781
Total Revenue: $439,927
Average Revenue: $0

Capitol Logistics 734




SAEZ
Aeropuerto Internacional Ezeiza/Ministro Pistarini
Buenos Aires, AR
KMIA
Miami International Airport
Miami, US